Time;durP1;ratioP1;P1;durP2;ratioP2;P2;SDS_P1;SDS_P2;PMS_P1;PMS_P2;Temp;Humidity;BMP_temperature;BMP_pressure;BME280_temperature;BME280_humidity;BME280_pressure;Samples;Min_cycle;Max_cycle;Signal;HPM_P1;HPM_P2
2023/10/23 00:02:16;;;;;;;;;;;;;;;;;;5049435;28;19979;-73
2023/10/23 00:04:44;;;;;;;;;;;;;;;;;;5050552;28;19925;-72
2023/10/23 00:07:10;;;;;;;;;;;;;;;;;;5051667;28;19991;-73
2023/10/23 00:09:38;;;;;;;;;;;;;;;;;;5056534;28;19929;-73
2023/10/23 00:12:07;;;;;;;;;;;;;;;;;;5052386;28;19981;-74
2023/10/23 00:14:34;;;;;;;;;;;;;;;;;;5050857;28;19971;-72
2023/10/23 00:17:01;;;;;;;;;;;;;;;;;;5050630;28;19924;-72
2023/10/23 00:19:28;;;;;;;;;;;;;;;;;;5050169;28;20469;-72
2023/10/23 00:21:55;;;;;;;;;;;;;;;;;;5052328;28;19978;-72
2023/10/23 00:24:22;;;;;;;;;;;;;;;;;;5050145;28;19976;-72
2023/10/23 00:26:49;;;;;;;;;;;;;;;;;;5054704;28;19933;-72
2023/10/23 00:29:16;;;;;;;;;;;;;;;;;;5048710;28;19994;-73
2023/10/23 00:31:43;;;;;;;;;;;;;;;;;;5050995;28;19978;-72
2023/10/23 00:34:10;;;;;;;;;;;;;;;;;;5048470;28;19925;-72
2023/10/23 00:36:38;;;;;;;;;;;;;;;;;;5044557;28;20375;-73
2023/10/23 00:39:05;;;;;;;;;;;;;;;;;;5051819;28;19925;-73
2023/10/23 00:41:32;;;;;;;;;;;;;;;;;;5054091;28;19925;-74
2023/10/23 00:44:00;;;;;;;;;;;;;;;;;;5055091;28;19971;-72
2023/10/23 00:46:27;;;;;;;;;;;;;;;;;;5050964;28;19925;-73
2023/10/23 00:48:54;;;;;;;;;;;;;;;;;;5050199;28;19994;-72
2023/10/23 00:51:21;;;;;;;;;;;;;;;;;;5050238;28;19925;-73
2023/10/23 00:53:48;;;;;;;;;;;;;;;;;;5050020;28;19929;-73
2023/10/23 00:56:15;;;;;;;;;;;;;;;;;;5050232;28;19925;-73
2023/10/23 00:58:43;;;;;;;;;;;;;;;;;;5052521;28;19933;-73
2023/10/23 01:01:11;;;;;;;;;;;;;;;;;;5054187;28;20314;-73
2023/10/23 01:03:38;;;;;;;;;;;;;;;;;;5052689;28;19931;-73
2023/10/23 01:06:05;;;;;;;;;;;;;;;;;;5052505;28;20280;-70
2023/10/23 01:08:32;;;;;;;;;;;;;;;;;;5054901;28;19967;-71
2023/10/23 01:10:59;;;;;;;;;;;;;;;;;;5053726;28;19925;-70
2023/10/23 01:13:26;;;;;;;;;;;;;;;;;;5052321;28;20379;-71
2023/10/23 01:15:54;;;;;;;;;;;;;;;;;;5052975;28;19929;-71
2023/10/23 01:18:21;;;;;;;;;;;;;;;;;;5053517;28;19975;-71
2023/10/23 01:20:48;;;;;;;;;;;;;;;;;;5054626;28;19925;-71
2023/10/23 01:23:15;;;;;;;;;;;;;;;;;;5052217;28;19925;-73
2023/10/23 01:25:42;;;;;;;;;;;;;;;;;;5052492;28;19955;-73
2023/10/23 01:28:09;;;;;;;;;;;;;;;;;;5052774;28;19978;-73
2023/10/23 01:30:38;;;;;;;;;;;;;;;;;;5050816;28;20003;-73
2023/10/23 01:33:05;;;;;;;;;;;;;;;;;;5050927;28;21529;-73
2023/10/23 01:35:32;;;;;;;;;;;;;;;;;;5052059;28;19964;-73
2023/10/23 01:37:59;;;;;;;;;;;;;;;;;;5052724;28;19980;-73
2023/10/23 01:40:26;;;;;;;;;;;;;;;;;;5052359;28;19963;-73
2023/10/23 01:42:53;;;;;;;;;;;;;;;;;;5053297;28;19955;-74
2023/10/23 01:45:20;;;;;;;;;;;;;;;;;;5053731;28;20379;-73
2023/10/23 01:47:47;;;;;;;;;;;;;;;;;;5054499;28;19983;-73
2023/10/23 01:50:14;;;;;;;;;;;;;;;;;;5056415;28;19940;-73
2023/10/23 01:52:41;;;;;;;;;;;;;;;;;;5053548;28;20314;-73
2023/10/23 01:55:08;;;;;;;;;;;;;;;;;;5052746;28;19933;-73
2023/10/23 01:57:35;;;;;;;;;;;;;;;;;;5057033;28;19994;-73
2023/10/23 02:00:05;;;;;;;;;;;;;;;;;;5051444;28;19925;-73
2023/10/23 02:02:32;;;;;;;;;;;;;;;;;;5054361;28;19933;-72
2023/10/23 02:04:59;;;;;;;;;;;;;;;;;;5053728;28;20031;-73
2023/10/23 02:07:27;;;;;;;;;;;;;;;;;;5060884;28;19924;-73
2023/10/23 02:09:54;;;;;;;;;;;;;;;;;;5052415;28;19925;-73
2023/10/23 02:12:21;;;;;;;;;;;;;;;;;;5052179;28;19924;-73
2023/10/23 02:14:50;;;;;;;;;;;;;;;;;;5050830;28;19967;-73
2023/10/23 02:17:17;;;;;;;;;;;;;;;;;;5051824;28;19936;-73
2023/10/23 02:19:44;;;;;;;;;;;;;;;;;;5052153;28;19925;-72
2023/10/23 02:22:11;;;;;;;;;;;;;;;;;;5050647;28;19925;-72
2023/10/23 02:24:38;;;;;;;;;;;;;;;;;;5046249;28;19928;-72
2023/10/23 02:27:05;;;;;;;;;;;;;;;;;;5053482;28;19971;-72
2023/10/23 02:29:32;;;;;;;;;;;;;;;;;;5049331;28;19979;-72
2023/10/23 02:31:59;;;;;;;;;;;;;;;;;;5052826;28;20252;-73
2023/10/23 02:34:26;;;;;;;;;;;;;;;;;;5035175;28;19932;-71
2023/10/23 02:36:53;;;;;;;;;;;;;;;;;;5053484;28;19990;-72
2023/10/23 02:39:20;;;;;;;;;;;;;;;;;;5052339;28;19928;-72
2023/10/23 02:41:47;;;;;;;;;;;;;;;;;;5066112;28;20386;-72
2023/10/23 02:44:14;;;;;;;;;;;;;;;;;;5062193;28;19924;-71
2023/10/23 02:46:41;;;;;;;;;;;;;;;;;;5053546;28;19925;-72
2023/10/23 02:49:09;;;;;;;;;;;;;;;;;;5052555;28;19947;-72
2023/10/23 02:51:37;;;;;;;;;;;;;;;;;;5054260;28;19986;-72
2023/10/23 02:54:04;;;;;;;;;;;;;;;;;;5053560;28;19932;-72
2023/10/23 02:56:32;;;;;;;;;;;;;;;;;;5054086;28;19925;-73
2023/10/23 02:58:59;;;;;;;;;;;;;;;;;;5052475;28;19925;-73
2023/10/23 03:01:26;;;;;;;;;;;;;;;;;;5052524;28;19929;-73
2023/10/23 03:03:53;;;;;;;;;;;;;;;;;;5053219;28;20358;-72
2023/10/23 03:06:20;;;;;;;;;;;;;;;;;;5052004;28;19979;-72
2023/10/23 03:08:47;;;;;;;;;;;;;;;;;;5050290;28;19929;-72
2023/10/23 03:11:14;;;;;;;;;;;;;;;;;;5051489;28;19925;-72
2023/10/23 03:13:41;;;;;;;;;;;;;;;;;;5052021;28;19928;-72
2023/10/23 03:16:08;;;;;;;;;;;;;;;;;;5069171;28;19968;-73
2023/10/23 03:18:35;;;;;;;;;;;;;;;;;;5051179;28;19929;-72
2023/10/23 03:21:02;;;;;;;;;;;;;;;;;;5051590;28;19929;-72
2023/10/23 03:23:29;;;;;;;;;;;;;;;;;;5048515;28;20334;-72
2023/10/23 03:25:56;;;;;;;;;;;;;;;;;;5052990;28;19925;-72
2023/10/23 03:28:23;;;;;;;;;;;;;;;;;;5051524;28;20322;-72
2023/10/23 03:30:50;;;;;;;;;;;;;;;;;;5053398;28;19924;-72
2023/10/23 03:33:17;;;;;;;;;;;;;;;;;;5060752;28;20340;-72
2023/10/23 03:35:44;;;;;;;;;;;;;;;;;;5049445;28;19929;-72
2023/10/23 03:38:11;;;;;;;;;;;;;;;;;;5051290;28;19995;-72
2023/10/23 03:40:38;;;;;;;;;;;;;;;;;;5049916;28;19925;-72
2023/10/23 03:43:06;;;;;;;;;;;;;;;;;;5049739;28;20402;-72
2023/10/23 03:45:33;;;;;;;;;;;;;;;;;;5050944;28;19929;-70
2023/10/23 03:48:00;;;;;;;;;;;;;;;;;;5047993;28;19929;-72
2023/10/23 03:50:27;;;;;;;;;;;;;;;;;;5052918;28;19931;-70
2023/10/23 03:52:54;;;;;;;;;;;;;;;;;;5050582;28;19964;-70
2023/10/23 03:55:21;;;;;;;;;;;;;;;;;;5048726;28;19991;-70
2023/10/23 03:57:49;;;;;;;;;;;;;;;;;;5048660;28;20546;-71
2023/10/23 04:00:16;;;;;;;;;;;;;;;;;;5051217;28;19924;-71
2023/10/23 04:02:43;;;;;;;;;;;;;;;;;;5051029;28;20382;-71
2023/10/23 04:05:10;;;;;;;;;;;;;;;;;;5049905;28;19929;-71
2023/10/23 04:07:37;;;;;;;;;;;;;;;;;;5050268;28;19929;-71
2023/10/23 04:10:04;;;;;;;;;;;;;;;;;;5051771;28;20338;-72
2023/10/23 04:12:31;;;;;;;;;;;;;;;;;;5052745;28;19975;-71
2023/10/23 04:14:58;;;;;;;;;;;;;;;;;;5050955;28;20310;-71
2023/10/23 04:17:25;;;;;;;;;;;;;;;;;;5050337;28;19978;-71
2023/10/23 04:19:52;;;;;;;;;;;;;;;;;;5049354;28;19951;-71
2023/10/23 04:22:19;;;;;;;;;;;;;;;;;;5052480;28;19964;-72
2023/10/23 04:24:47;;;;;;;;;;;;;;;;;;5053110;28;20370;-71
2023/10/23 04:27:14;;;;;;;;;;;;;;;;;;5048702;28;19960;-71
2023/10/23 04:29:41;;;;;;;;;;;;;;;;;;5051387;28;19929;-72
2023/10/23 04:32:08;;;;;;;;;;;;;;;;;;5051428;28;19925;-72
2023/10/23 04:34:35;;;;;;;;;;;;;;;;;;5051074;28;19924;-72
2023/10/23 04:37:03;;;;;;;;;;;;;;;;;;5047963;28;19929;-72
2023/10/23 04:39:31;;;;;;;;;;;;;;;;;;5052672;28;19925;-72
2023/10/23 04:41:58;;;;;;;;;;;;;;;;;;5051938;28;20363;-72
2023/10/23 04:44:25;;;;;;;;;;;;;;;;;;5061311;28;19975;-72
2023/10/23 04:46:52;;;;;;;;;;;;;;;;;;5051023;28;20395;-72
2023/10/23 04:49:19;;;;;;;;;;;;;;;;;;5051575;28;19982;-71
2023/10/23 04:51:46;;;;;;;;;;;;;;;;;;5051157;28;19928;-72
2023/10/23 04:54:14;;;;;;;;;;;;;;;;;;5049929;28;20442;-73
2023/10/23 04:56:42;;;;;;;;;;;;;;;;;;5050822;28;20371;-73
2023/10/23 04:59:09;;;;;;;;;;;;;;;;;;5065107;28;20035;-71
2023/10/23 05:01:36;;;;;;;;;;;;;;;;;;5051509;28;20012;-71
2023/10/23 05:04:03;;;;;;;;;;;;;;;;;;5051030;28;20398;-72
2023/10/23 05:06:30;;;;;;;;;;;;;;;;;;5049679;28;20413;-72
2023/10/23 05:08:57;;;;;;;;;;;;;;;;;;5049600;28;19925;-71
2023/10/23 05:11:25;;;;;;;;;;;;;;;;;;5051961;28;20388;-72
2023/10/23 05:13:52;;;;;;;;;;;;;;;;;;5048375;28;19925;-72
2023/10/23 05:16:19;;;;;;;;;;;;;;;;;;5050669;28;19928;-72
2023/10/23 05:18:47;;;;;;;;;;;;;;;;;;5049760;28;19924;-76
2023/10/23 05:21:14;;;;;;;;;;;;;;;;;;5051180;28;20378;-75
2023/10/23 05:23:41;;;;;;;;;;;;;;;;;;5046789;28;19929;-75
2023/10/23 05:26:10;;;;;;;;;;;;;;;;;;5051882;28;19925;-76
2023/10/23 05:28:37;;;;;;;;;;;;;;;;;;5048525;28;19925;-75
2023/10/23 05:31:04;;;;;;;;;;;;;;;;;;5045810;28;19970;-75
2023/10/23 05:33:31;;;;;;;;;;;;;;;;;;5045538;28;19928;-75
2023/10/23 05:35:58;;;;;;;;;;;;;;;;;;5048692;28;19956;-76
2023/10/23 05:38:25;;;;;;;;;;;;;;;;;;5047687;28;20375;-75
2023/10/23 05:40:52;;;;;;;;;;;;;;;;;;5045315;28;19928;-76
2023/10/23 05:43:19;;;;;;;;;;;;;;;;;;5050042;28;19925;-76
2023/10/23 05:45:46;;;;;;;;;;;;;;;;;;5054438;28;20371;-76
2023/10/23 05:48:13;;;;;;;;;;;;;;;;;;5046313;28;20316;-75
2023/10/23 05:50:41;;;;;;;;;;;;;;;;;;5052361;28;19975;-74
2023/10/23 05:53:08;;;;;;;;;;;;;;;;;;5051722;28;19928;-74
2023/10/23 05:55:35;;;;;;;;;;;;;;;;;;5051456;28;20328;-74
2023/10/23 05:58:02;;;;;;;;;;;;;;;;;;5038367;28;19925;-74
2023/10/23 06:00:29;;;;;;;;;;;;;;;;;;5042361;28;20023;-73
2023/10/23 06:02:56;;;;;;;;;;;;;;;;;;5032158;28;20353;-74
2023/10/23 06:05:23;;;;;;;;;;;;;;;;;;5034844;28;19925;-73
2023/10/23 06:07:50;;;;;;;;;;;;;;;;;;5034100;28;19925;-72
2023/10/23 06:10:19;;;;;;;;;;;;;;;;;;5029563;28;20715;-72
2023/10/23 06:12:46;;;;;;;;;;;;;;;;;;5028594;28;19933;-72
2023/10/23 06:15:13;;;;;;;;;;;;;;;;;;5036164;28;19974;-73
2023/10/23 06:17:40;;;;;;;;;;;;;;;;;;5037644;28;19971;-71
2023/10/23 06:20:07;;;;;;;;;;;;;;;;;;5034062;28;19932;-74
2023/10/23 06:22:34;;;;;;;;;;;;;;;;;;5044401;28;20401;-72
2023/10/23 06:25:01;;;;;;;;;;;;;;;;;;5048390;28;19982;-74
2023/10/23 06:27:28;;;;;;;;;;;;;;;;;;5049319;28;19936;-72
2023/10/23 06:29:55;;;;;;;;;;;;;;;;;;5048299;28;19942;-72
2023/10/23 06:32:22;;;;;;;;;;;;;;;;;;5039276;28;19940;-72
2023/10/23 06:34:50;;;;;;;;;;;;;;;;;;5039477;28;19925;-74
2023/10/23 06:37:17;;;;;;;;;;;;;;;;;;5042125;28;20136;-74
2023/10/23 06:39:44;;;;;;;;;;;;;;;;;;5044700;28;20438;-73
2023/10/23 06:42:11;;;;;;;;;;;;;;;;;;5040416;28;19929;-74
2023/10/23 06:44:38;;;;;;;;;;;;;;;;;;5046179;28;19928;-73
2023/10/23 06:47:05;;;;;;;;;;;;;;;;;;5046362;28;19924;-75
2023/10/23 06:49:32;;;;;;;;;;;;;;;;;;5047737;28;19933;-76
2023/10/23 06:51:59;;;;;;;;;;;;;;;;;;5046703;28;19929;-77
2023/10/23 06:54:27;;;;;;;;;;;;;;;;;;5046504;28;19949;-76
2023/10/23 06:56:54;;;;;;;;;;;;;;;;;;5050393;28;20032;-74
2023/10/23 06:59:21;;;;;;;;;;;;;;;;;;5047573;28;19998;-76
2023/10/23 07:01:48;;;;;;;;;;;;;;;;;;5048175;28;19925;-76
2023/10/23 07:04:15;;;;;;;;;;;;;;;;;;5047713;28;19925;-75
2023/10/23 07:06:42;;;;;;;;;;;;;;;;;;5050384;28;19980;-74
2023/10/23 07:09:09;;;;;;;;;;;;;;;;;;5046342;28;20376;-75
2023/10/23 07:11:36;;;;;;;;;;;;;;;;;;5037418;28;19929;-75
2023/10/23 07:14:03;;;;;;;;;;;;;;;;;;5045089;28;19929;-75
2023/10/23 07:16:30;;;;;;;;;;;;;;;;;;5041803;28;19978;-75
2023/10/23 07:18:57;;;;;;;;;;;;;;;;;;5041696;28;21400;-75
2023/10/23 07:21:25;;;;;;;;;;;;;;;;;;5047898;28;19978;-75
2023/10/23 07:23:52;;;;;;;;;;;;;;;;;;5048634;28;20031;-75
2023/10/23 07:26:19;;;;;;;;;;;;;;;;;;5047329;28;20122;-76
2023/10/23 07:28:47;;;;;;;;;;;;;;;;;;5045877;28;21530;-74
2023/10/23 07:31:14;;;;;;;;;;;;;;;;;;5051178;28;19925;-75
2023/10/23 07:33:41;;;;;;;;;;;;;;;;;;5041923;28;19939;-75
2023/10/23 07:36:09;;;;;;;;;;;;;;;;;;5043344;28;20287;-74
2023/10/23 07:38:36;;;;;;;;;;;;;;;;;;5048855;28;20140;-76
2023/10/23 07:41:03;;;;;;;;;;;;;;;;;;5053619;28;20437;-74
2023/10/23 07:43:30;;;;;;;;;;;;;;;;;;5046325;28;19929;-76
2023/10/23 07:45:57;;;;;;;;;;;;;;;;;;5044531;28;20272;-75
2023/10/23 07:48:24;;;;;;;;;;;;;;;;;;5048868;28;19932;-74
2023/10/23 07:50:51;;;;;;;;;;;;;;;;;;5050019;28;20054;-75
2023/10/23 07:53:18;;;;;;;;;;;;;;;;;;5049638;28;19935;-74
2023/10/23 07:55:45;;;;;;;;;;;;;;;;;;5049234;28;19986;-72
2023/10/23 07:58:12;;;;;;;;;;;;;;;;;;5047136;28;19925;-73
2023/10/23 08:00:39;;;;;;;;;;;;;;;;;;5036465;28;20320;-72
2023/10/23 08:03:06;;;;;;;;;;;;;;;;;;5047408;28;19983;-72
2023/10/23 08:05:33;;;;;;;;;;;;;;;;;;5048042;28;19998;-72
2023/10/23 08:08:00;;;;;;;;;;;;;;;;;;5047171;28;19929;-73
2023/10/23 08:10:27;;;;;;;;;;;;;;;;;;5047244;28;19925;-72
2023/10/23 08:12:54;;;;;;;;;;;;;;;;;;5049865;28;19955;-72
2023/10/23 08:15:21;;;;;;;;;;;;;;;;;;5046353;28;19931;-73
2023/10/23 08:17:50;;;;;;;;;;;;;;;;;;5044446;28;20354;-73
2023/10/23 08:20:17;;;;;;;;;;;;;;;;;;5051419;28;20020;-72
2023/10/23 08:22:44;;;;;;;;;;;;;;;;;;5048921;28;20008;-72
2023/10/23 08:25:11;;;;;;;;;;;;;;;;;;5050590;28;19979;-73
2023/10/23 08:27:38;;;;;;;;;;;;;;;;;;5048541;28;19925;-73
2023/10/23 08:30:06;;;;;;;;;;;;;;;;;;5050728;28;19925;-73
2023/10/23 08:32:35;;;;;;;;;;;;;;;;;;5042864;28;20015;-73
2023/10/23 08:35:02;;;;;;;;;;;;;;;;;;5048178;28;19931;-73
2023/10/23 08:37:29;;;;;;;;;;;;;;;;;;5049187;28;19925;-73
2023/10/23 08:39:56;;;;;;;;;;;;;;;;;;5050817;28;19978;-74
2023/10/23 08:42:23;;;;;;;;;;;;;;;;;;5048517;28;19932;-74
2023/10/23 08:44:50;;;;;;;;;;;;;;;;;;5039562;28;19987;-74
2023/10/23 08:47:17;;;;;;;;;;;;;;;;;;5050648;28;19978;-73
2023/10/23 08:49:44;;;;;;;;;;;;;;;;;;5047202;28;20582;-73
2023/10/23 08:52:11;;;;;;;;;;;;;;;;;;5044363;28;19968;-72
2023/10/23 08:54:38;;;;;;;;;;;;;;;;;;5042698;28;19932;-72
2023/10/23 08:57:05;;;;;;;;;;;;;;;;;;5042660;28;19979;-72
2023/10/23 08:59:32;;;;;;;;;;;;;;;;;;5044778;28;20456;-73
2023/10/23 09:01:59;;;;;;;;;;;;;;;;;;5047181;28;19925;-72
2023/10/23 09:04:27;;;;;;;;;;;;;;;;;;5045635;28;19975;-64
2023/10/23 09:06:56;;;;;;;;;;;;;;;;;;5045834;28;19925;-72
2023/10/23 09:09:23;;;;;;;;;;;;;;;;;;5047188;28;19955;-72
2023/10/23 09:11:50;;;;;;;;;;;;;;;;;;5048795;28;19955;-73
2023/10/23 09:14:17;;;;;;;;;;;;;;;;;;5046788;28;19925;-72
2023/10/23 09:16:44;;;;;;;;;;;;;;;;;;5046518;28;19929;-72
2023/10/23 09:19:11;;;;;;;;;;;;;;;;;;5047400;28;19924;-72
2023/10/23 09:21:38;;;;;;;;;;;;;;;;;;5044406;28;19928;-72
2023/10/23 09:24:06;;;;;;;;;;;;;;;;;;5041380;28;20442;-73
2023/10/23 09:26:33;;;;;;;;;;;;;;;;;;5040214;28;20379;-73
2023/10/23 09:29:00;;;;;;;;;;;;;;;;;;5044159;28;19925;-73
2023/10/23 09:31:27;;;;;;;;;;;;;;;;;;5046574;28;20457;-73
2023/10/23 09:33:54;;;;;;;;;;;;;;;;;;5042916;28;20164;-72
2023/10/23 09:36:21;;;;;;;;;;;;;;;;;;5047159;28;19925;-72
2023/10/23 09:38:48;;;;;;;;;;;;;;;;;;5052236;28;19971;-73
2023/10/23 09:41:15;;;;;;;;;;;;;;;;;;5041902;28;19929;-72
2023/10/23 09:43:42;;;;;;;;;;;;;;;;;;5043228;28;19924;-72
2023/10/23 09:46:09;;;;;;;;;;;;;;;;;;5049545;28;19925;-72
2023/10/23 09:48:38;;;;;;;;;;;;;;;;;;5044407;28;20553;-72
2023/10/23 09:51:05;;;;;;;;;;;;;;;;;;5041869;28;20034;-73
2023/10/23 09:53:32;;;;;;;;;;;;;;;;;;5043292;28;19970;-73
2023/10/23 09:55:59;;;;;;;;;;;;;;;;;;5043468;28;20306;-72
2023/10/23 09:58:26;;;;;;;;;;;;;;;;;;5042371;28;19933;-73
2023/10/23 10:00:53;;;;;;;;;;;;;;;;;;5044358;28;20642;-72
2023/10/23 10:03:20;;;;;;;;;;;;;;;;;;5040960;28;19929;-72
2023/10/23 10:05:47;;;;;;;;;;;;;;;;;;5038476;28;19929;-71
2023/10/23 10:08:14;;;;;;;;;;;;;;;;;;5040530;28;19983;-73
2023/10/23 10:10:41;;;;;;;;;;;;;;;;;;5042794;28;19924;-72
2023/10/23 10:13:08;;;;;;;;;;;;;;;;;;5045440;28;19925;-72
2023/10/23 10:15:35;;;;;;;;;;;;;;;;;;5048655;28;19999;-73
2023/10/23 10:18:03;;;;;;;;;;;;;;;;;;5041028;28;19932;-73
2023/10/23 10:20:30;;;;;;;;;;;;;;;;;;5048539;28;19931;-73
2023/10/23 10:22:57;;;;;;;;;;;;;;;;;;5050502;28;20383;-72
2023/10/23 10:25:24;;;;;;;;;;;;;;;;;;5052414;28;20329;-72
2023/10/23 10:27:52;;;;;;;;;;;;;;;;;;5049031;28;19937;-72
2023/10/23 10:30:19;;;;;;;;;;;;;;;;;;5052295;28;20015;-73
2023/10/23 10:32:46;;;;;;;;;;;;;;;;;;5048089;28;19925;-74
2023/10/23 10:35:13;;;;;;;;;;;;;;;;;;5049537;28;19929;-74
2023/10/23 10:37:40;;;;;;;;;;;;;;;;;;5046738;28;19924;-74
2023/10/23 10:40:07;;;;;;;;;;;;;;;;;;5047239;28;19924;-74
2023/10/23 10:42:34;;;;;;;;;;;;;;;;;;5047851;28;19935;-74
2023/10/23 10:45:02;;;;;;;;;;;;;;;;;;5039108;28;19971;-74
2023/10/23 10:47:29;;;;;;;;;;;;;;;;;;5045613;28;20387;-73
2023/10/23 10:49:56;;;;;;;;;;;;;;;;;;5045253;28;19931;-73
2023/10/23 10:52:23;;;;;;;;;;;;;;;;;;5041114;28;20147;-74
2023/10/23 10:54:50;;;;;;;;;;;;;;;;;;5050826;28;20042;-74
2023/10/23 10:57:17;;;;;;;;;;;;;;;;;;5042351;28;20066;-72
2023/10/23 10:59:44;;;;;;;;;;;;;;;;;;5043246;28;19932;-75
2023/10/23 11:02:11;;;;;;;;;;;;;;;;;;5044573;28;20051;-73
2023/10/23 11:04:38;;;;;;;;;;;;;;;;;;5043203;28;20042;-73
2023/10/23 11:07:05;;;;;;;;;;;;;;;;;;5035714;28;20044;-73
2023/10/23 11:09:32;;;;;;;;;;;;;;;;;;5040774;28;20342;-74
2023/10/23 11:12:00;;;;;;;;;;;;;;;;;;5038782;28;19939;-72
2023/10/23 11:14:27;;;;;;;;;;;;;;;;;;5041910;28;19978;-73
2023/10/23 11:16:54;;;;;;;;;;;;;;;;;;5039774;28;19990;-73
2023/10/23 11:19:21;;;;;;;;;;;;;;;;;;5043637;28;19928;-73
2023/10/23 11:21:48;;;;;;;;;;;;;;;;;;5041660;28;20387;-73
2023/10/23 11:24:15;;;;;;;;;;;;;;;;;;5036004;28;19949;-72
2023/10/23 11:26:42;;;;;;;;;;;;;;;;;;5039019;28;21621;-72
2023/10/23 11:29:10;;;;;;;;;;;;;;;;;;5033769;28;19964;-73
2023/10/23 11:31:38;;;;;;;;;;;;;;;;;;5040149;28;19978;-72
2023/10/23 11:34:06;;;;;;;;;;;;;;;;;;5042459;28;20008;-72
2023/10/23 11:36:33;;;;;;;;;;;;;;;;;;5039045;28;19980;-73
2023/10/23 11:39:01;;;;;;;;;;;;;;;;;;5044071;28;20028;-73
2023/10/23 11:41:28;;;;;;;;;;;;;;;;;;5049074;28;19925;-74
2023/10/23 11:43:55;;;;;;;;;;;;;;;;;;5046377;28;19925;-73
2023/10/23 11:46:24;;;;;;;;;;;;;;;;;;5038563;28;19925;-73
2023/10/23 11:48:51;;;;;;;;;;;;;;;;;;5037183;28;19925;-72
2023/10/23 11:51:18;;;;;;;;;;;;;;;;;;5041934;28;19925;-73
2023/10/23 11:53:45;;;;;;;;;;;;;;;;;;5038053;28;19937;-73
2023/10/23 11:56:12;;;;;;;;;;;;;;;;;;5044210;28;20099;-72
2023/10/23 11:58:39;;;;;;;;;;;;;;;;;;5058074;28;19985;-72
2023/10/23 12:01:06;;;;;;;;;;;;;;;;;;5051769;28;20350;-72
2023/10/23 12:03:33;;;;;;;;;;;;;;;;;;5062504;28;19978;-73
2023/10/23 12:06:00;;;;;;;;;;;;;;;;;;5056207;28;19924;-73
2023/10/23 12:08:27;;;;;;;;;;;;;;;;;;5051675;28;20012;-73
2023/10/23 12:10:54;;;;;;;;;;;;;;;;;;5052664;28;19968;-72
2023/10/23 12:13:21;;;;;;;;;;;;;;;;;;5057747;28;19925;-73
2023/10/23 12:15:48;;;;;;;;;;;;;;;;;;5049209;28;19929;-72
2023/10/23 12:18:15;;;;;;;;;;;;;;;;;;5047883;28;19986;-73
2023/10/23 12:20:42;;;;;;;;;;;;;;;;;;5048162;28;19925;-71
2023/10/23 12:23:09;;;;;;;;;;;;;;;;;;5031128;28;19925;-72
2023/10/23 12:25:36;;;;;;;;;;;;;;;;;;5045424;28;20004;-72
2023/10/23 12:28:03;;;;;;;;;;;;;;;;;;5045867;28;19991;-73
2023/10/23 12:30:30;;;;;;;;;;;;;;;;;;5050661;28;20031;-72
2023/10/23 12:32:57;;;;;;;;;;;;;;;;;;5044390;28;19967;-73
2023/10/23 12:35:25;;;;;;;;;;;;;;;;;;5050313;28;20432;-72
2023/10/23 12:37:52;;;;;;;;;;;;;;;;;;5049827;28;19924;-73
2023/10/23 12:40:19;;;;;;;;;;;;;;;;;;5049067;28;19928;-73
2023/10/23 12:42:46;;;;;;;;;;;;;;;;;;5048623;28;19929;-73
2023/10/23 12:45:13;;;;;;;;;;;;;;;;;;5045084;28;20022;-72
2023/10/23 12:47:40;;;;;;;;;;;;;;;;;;5048667;28;19978;-72
2023/10/23 12:50:07;;;;;;;;;;;;;;;;;;5047400;28;19929;-71
2023/10/23 12:52:34;;;;;;;;;;;;;;;;;;5047478;28;19925;-72
2023/10/23 12:55:01;;;;;;;;;;;;;;;;;;5053968;28;20324;-73
2023/10/23 12:57:28;;;;;;;;;;;;;;;;;;5052160;28;19935;-73
2023/10/23 12:59:55;;;;;;;;;;;;;;;;;;5055590;28;19929;-73
2023/10/23 13:02:22;;;;;;;;;;;;;;;;;;5057056;28;19925;-73
2023/10/23 13:04:49;;;;;;;;;;;;;;;;;;5052026;28;20367;-73
2023/10/23 13:07:16;;;;;;;;;;;;;;;;;;5057354;28;19924;-72
2023/10/23 13:09:43;;;;;;;;;;;;;;;;;;5051732;28;19947;-72
2023/10/23 13:12:10;;;;;;;;;;;;;;;;;;5059090;28;19978;-73
2023/10/23 13:14:38;;;;;;;;;;;;;;;;;;5052897;28;19932;-72
2023/10/23 13:17:05;;;;;;;;;;;;;;;;;;5053994;28;19925;-72
2023/10/23 13:19:32;;;;;;;;;;;;;;;;;;5046260;28;19937;-71
2023/10/23 13:21:59;;;;;;;;;;;;;;;;;;5055177;28;19929;-73
2023/10/23 13:24:26;;;;;;;;;;;;;;;;;;5052814;28;20006;-72
2023/10/23 13:26:53;;;;;;;;;;;;;;;;;;5053377;28;20398;-72
2023/10/23 13:29:20;;;;;;;;;;;;;;;;;;5052652;28;20439;-72
2023/10/23 13:31:49;;;;;;;;;;;;;;;;;;5049530;28;19974;-72
2023/10/23 13:34:16;;;;;;;;;;;;;;;;;;5049347;28;19931;-73
2023/10/23 13:36:43;;;;;;;;;;;;;;;;;;5052751;28;19928;-73
2023/10/23 13:39:10;;;;;;;;;;;;;;;;;;5052518;28;20392;-72
2023/10/23 13:41:37;;;;;;;;;;;;;;;;;;5041143;28;20303;-73
2023/10/23 13:44:04;;;;;;;;;;;;;;;;;;5059399;28;19924;-72
2023/10/23 13:46:31;;;;;;;;;;;;;;;;;;5054039;28;20437;-73
2023/10/23 13:48:58;;;;;;;;;;;;;;;;;;5053293;28;20383;-73
2023/10/23 13:51:25;;;;;;;;;;;;;;;;;;5051911;28;19939;-72
2023/10/23 13:53:53;;;;;;;;;;;;;;;;;;5048881;28;20004;-73
2023/10/23 13:56:20;;;;;;;;;;;;;;;;;;5052945;28;19925;-72
2023/10/23 13:58:47;;;;;;;;;;;;;;;;;;5050604;28;19936;-73
2023/10/23 14:01:14;;;;;;;;;;;;;;;;;;5050339;28;19971;-72
2023/10/23 14:03:41;;;;;;;;;;;;;;;;;;5045993;28;20279;-72
2023/10/23 14:06:08;;;;;;;;;;;;;;;;;;5046259;28;19970;-71
2023/10/23 14:08:37;;;;;;;;;;;;;;;;;;5041857;28;19925;-74
2023/10/23 14:11:04;;;;;;;;;;;;;;;;;;5045048;28;19928;-76
2023/10/23 14:13:31;;;;;;;;;;;;;;;;;;5054816;28;19924;-75
2023/10/23 14:15:58;;;;;;;;;;;;;;;;;;5051185;28;19925;-75
2023/10/23 14:18:25;;;;;;;;;;;;;;;;;;5050666;28;20019;-72
2023/10/23 14:20:52;;;;;;;;;;;;;;;;;;5048841;28;20034;-74
2023/10/23 14:23:19;;;;;;;;;;;;;;;;;;5045973;28;19936;-74
2023/10/23 14:25:46;;;;;;;;;;;;;;;;;;5050045;28;19924;-73
2023/10/23 14:28:13;;;;;;;;;;;;;;;;;;5044429;28;20051;-74
2023/10/23 14:30:40;;;;;;;;;;;;;;;;;;5043310;28;19944;-73
2023/10/23 14:33:07;;;;;;;;;;;;;;;;;;5041815;28;20310;-74
2023/10/23 14:35:35;;;;;;;;;;;;;;;;;;5041560;28;20068;-73
2023/10/23 14:38:02;;;;;;;;;;;;;;;;;;5039920;28;20064;-73
2023/10/23 14:40:29;;;;;;;;;;;;;;;;;;5045694;28;19940;-74
2023/10/23 14:42:57;;;;;;;;;;;;;;;;;;5041232;28;19924;-73
2023/10/23 14:45:24;;;;;;;;;;;;;;;;;;5044697;28;20293;-75
2023/10/23 14:47:51;;;;;;;;;;;;;;;;;;5049614;28;19963;-74
2023/10/23 14:50:18;;;;;;;;;;;;;;;;;;5038027;28;19936;-72
2023/10/23 14:52:45;;;;;;;;;;;;;;;;;;5043857;28;19983;-73
2023/10/23 14:55:12;;;;;;;;;;;;;;;;;;5040548;28;20010;-74
2023/10/23 14:57:39;;;;;;;;;;;;;;;;;;5038530;28;19933;-73
2023/10/23 15:00:06;;;;;;;;;;;;;;;;;;5042298;28;19929;-72
2023/10/23 15:02:33;;;;;;;;;;;;;;;;;;5041655;28;19932;-73
2023/10/23 15:05:00;;;;;;;;;;;;;;;;;;5048184;28;19924;-72
2023/10/23 15:07:27;;;;;;;;;;;;;;;;;;5035302;28;19933;-73
2023/10/23 15:09:54;;;;;;;;;;;;;;;;;;5043644;28;19924;-74
2023/10/23 15:12:21;;;;;;;;;;;;;;;;;;5044448;28;20365;-73
2023/10/23 15:14:48;;;;;;;;;;;;;;;;;;5038696;28;19925;-73
2023/10/23 15:17:15;;;;;;;;;;;;;;;;;;5044207;28;20401;-74
2023/10/23 15:19:42;;;;;;;;;;;;;;;;;;5040862;28;19925;-75
2023/10/23 15:22:09;;;;;;;;;;;;;;;;;;5047038;28;19925;-77
2023/10/23 15:24:36;;;;;;;;;;;;;;;;;;5042392;28;20077;-77
2023/10/23 15:27:03;;;;;;;;;;;;;;;;;;5050624;28;20046;-76
2023/10/23 15:29:30;;;;;;;;;;;;;;;;;;5043357;28;19929;-75
2023/10/23 15:31:57;;;;;;;;;;;;;;;;;;5043712;28;19937;-75
2023/10/23 15:34:24;;;;;;;;;;;;;;;;;;5043654;28;19929;-75
2023/10/23 15:36:51;;;;;;;;;;;;;;;;;;5045668;28;19998;-75
2023/10/23 15:39:22;;;;;;;;;;;;;;;;;;5037747;28;20034;-74
2023/10/23 15:41:49;;;;;;;;;;;;;;;;;;5037395;28;19925;-74
2023/10/23 15:44:16;;;;;;;;;;;;;;;;;;5039763;28;20029;-74
2023/10/23 15:46:43;;;;;;;;;;;;;;;;;;5042706;28;19925;-74
2023/10/23 15:49:10;;;;;;;;;;;;;;;;;;5044205;28;19925;-74
2023/10/23 15:51:37;;;;;;;;;;;;;;;;;;5045227;28;19979;-74
2023/10/23 15:54:04;;;;;;;;;;;;;;;;;;5038928;28;20692;-77
2023/10/23 15:56:31;;;;;;;;;;;;;;;;;;5035017;28;19928;-74
2023/10/23 15:58:58;;;;;;;;;;;;;;;;;;5038190;28;19928;-73
2023/10/23 16:01:26;;;;;;;;;;;;;;;;;;5037596;28;20379;-73
2023/10/23 16:03:53;;;;;;;;;;;;;;;;;;5033636;28;20590;-72
2023/10/23 16:06:20;;;;;;;;;;;;;;;;;;5040701;28;19994;-72
2023/10/23 16:08:47;;;;;;;;;;;;;;;;;;5038431;28;20387;-73
2023/10/23 16:11:14;;;;;;;;;;;;;;;;;;5041694;28;19932;-73
2023/10/23 16:13:41;;;;;;;;;;;;;;;;;;5035345;28;19940;-73
2023/10/23 16:16:08;;;;;;;;;;;;;;;;;;5032370;28;19978;-72
2023/10/23 16:18:35;;;;;;;;;;;;;;;;;;5035423;28;19979;-72
2023/10/23 16:21:03;;;;;;;;;;;;;;;;;;5033362;28;19925;-76
2023/10/23 16:23:33;;;;;;;;;;;;;;;;;;5037620;28;19936;-75
2023/10/23 16:26:00;;;;;;;;;;;;;;;;;;5034529;28;20280;-75
2023/10/23 16:28:28;;;;;;;;;;;;;;;;;;5032844;28;19972;-76
2023/10/23 16:30:55;;;;;;;;;;;;;;;;;;5032232;28;20315;-75
2023/10/23 16:33:22;;;;;;;;;;;;;;;;;;5035321;28;19987;-72
2023/10/23 16:35:49;;;;;;;;;;;;;;;;;;5038637;28;20261;-71
2023/10/23 16:38:18;;;;;;;;;;;;;;;;;;5032767;28;19952;-71
2023/10/23 16:40:45;;;;;;;;;;;;;;;;;;5033524;28;19933;-71
2023/10/23 16:43:13;;;;;;;;;;;;;;;;;;5039443;28;19933;-71
2023/10/23 16:45:40;;;;;;;;;;;;;;;;;;5031193;28;20007;-71